Terminal Aerodrome Forecast
Issued by NWS

Home | Current Version | Previous Version | Text Only | Print | Product List | Glossary On
Versions: 1 2 3 4 5 6 7 8 9 10 11 12 13 14 15 16 17
000
FTUS43 KSGF 162300 RRA
TAFJLN
TAF
KJLN 162337Z 1700/1724 18016G25KT P6SM SCT250
     FM170100 17008KT P6SM BKN250
     FM171400 VRB05KT P6SM FEW050 OVC150
     FM171800 36007KT P6SM BKN050 OVC120=

USA.gov is the U.S. government's official web portal to all federal, state and local government web resources and services.